createdAt,value
2023-02-19T00:09:40.373Z,107
2023-02-19T00:39:38.602Z,103
2023-02-19T01:09:40.101Z,98
2023-02-19T01:39:41.759Z,96
2023-02-19T02:09:36.865Z,93
2023-02-19T02:39:33.876Z,90
2023-02-19T03:09:32.658Z,88
2023-02-19T03:39:26.743Z,87
2023-02-19T04:09:23.833Z,85
2023-02-19T04:39:21.376Z,82
2023-02-19T05:09:23.821Z,80
2023-02-19T05:40:31.788Z,75
2023-02-19T06:10:21.056Z,21
2023-02-19T06:40:20.999Z,71
2023-02-19T07:10:21.214Z,20
2023-02-19T07:40:18.754Z,20
2023-02-19T08:10:22.216Z,18
2023-02-19T08:40:22.066Z,20
2023-02-19T09:10:19.166Z,64
2023-02-19T09:40:16.346Z,62
2023-02-19T10:10:21.766Z,164
2023-02-19T10:40:26.318Z,103
2023-02-19T11:10:25.620Z,104
2023-02-19T11:40:25.522Z,102
2023-02-19T12:10:24.769Z,100
2023-02-19T12:40:24.408Z,99
2023-02-19T13:10:27.420Z,96
2023-02-19T13:40:24.075Z,97
2023-02-19T14:10:22.316Z,94
2023-02-19T14:40:23.202Z,97
2023-02-19T15:10:24.789Z,92
2023-02-19T15:40:25.949Z,95
2023-02-19T16:10:24.209Z,101
2023-02-19T16:40:26.048Z,99
2023-02-19T17:10:20.263Z,99
2023-02-19T17:40:24.321Z,98
2023-02-19T18:10:24.295Z,100
2023-02-19T18:40:21.731Z,97
2023-02-19T19:10:24.036Z,103
2023-02-19T19:40:19.421Z,98
2023-02-19T20:10:21.127Z,98
2023-02-19T20:40:19.277Z,97
2023-02-19T21:10:15.192Z,99
2023-02-19T21:40:15.100Z,97
2023-02-19T22:10:18.446Z,97
2023-02-19T22:40:18.308Z,97
2023-02-19T23:10:21.059Z,97
2023-02-19T23:40:18.909Z,95
